Time;durP1;ratioP1;P1;durP2;ratioP2;P2;SDS_P1;SDS_P2;PMS_P1;PMS_P2;Temp;Humidity;BMP_temperature;BMP_pressure;BME280_temperature;BME280_humidity;BME280_pressure;Samples;Min_cycle;Max_cycle;Signal;HPM_P1;HPM_P2
2022/02/04 00:09:03;;;;;;;24.08;18.00;;;6.80;99.90;;;;;;5028564;28;20189;-63
2022/02/04 00:25:27;;;;;;;26.77;19.25;;;6.80;99.90;;;;;;5030566;28;20251;-63
2022/02/04 00:27:59;;;;;;;25.50;17.85;;;6.80;99.90;;;;;;5039034;28;20205;-63
2022/02/04 00:30:31;;;;;;;27.98;20.05;;;6.80;99.90;;;;;;5039436;28;20252;-62
2022/02/04 00:33:00;;;;;;;26.40;18.75;;;6.80;99.90;;;;;;5038216;28;20222;-61
2022/02/04 00:35:36;;;;;;;22.67;17.30;;;6.80;99.90;;;;;;5037256;28;20233;-62
2022/02/04 00:38:08;;;;;;;26.08;19.30;;;6.70;99.90;;;;;;5037106;28;20188;-62
2022/02/04 00:40:39;;;;;;;26.95;19.83;;;6.70;99.90;;;;;;5037047;28;20674;-63
2022/02/04 00:43:10;;;;;;;23.88;18.90;;;6.70;99.90;;;;;;5036981;28;20607;-62
2022/02/04 00:45:45;;;;;;;26.50;18.80;;;6.70;99.90;;;;;;5036925;28;20219;-62
2022/02/04 00:48:26;;;;;;;27.35;18.65;;;6.70;99.90;;;;;;5037313;28;20221;-63
2022/02/04 00:51:01;;;;;;;23.70;17.85;;;6.70;99.90;;;;;;5037123;28;20191;-62
2022/02/04 00:53:35;;;;;;;27.60;20.38;;;6.70;99.90;;;;;;5037093;28;20225;-61
2022/02/04 00:56:12;;;;;;;29.20;18.73;;;6.70;99.90;;;;;;5036619;28;20196;-63
2022/02/04 01:26:08;;;;;;;29.85;21.13;;;6.60;99.90;;;;;;5036680;28;20186;-61
2022/02/04 01:28:38;;;;;;;27.02;21.60;;;6.70;99.90;;;;;;5036396;28;20246;-62
2022/02/04 01:31:06;;;;;;;30.90;21.60;;;6.60;99.90;;;;;;5036190;28;20210;-62
2022/02/04 01:33:34;;;;;;;30.92;22.17;;;6.70;99.90;;;;;;5035950;28;20230;-63
2022/02/04 01:36:01;;;;;;;29.08;22.10;;;6.70;99.90;;;;;;5035014;28;20674;-62
2022/02/04 01:38:30;;;;;;;28.70;20.90;;;6.70;99.90;;;;;;5036055;28;20202;-62
2022/02/04 01:40:59;;;;;;;29.95;20.65;;;6.70;99.90;;;;;;5036057;28;20225;-62
2022/02/04 01:43:26;;;;;;;27.20;19.58;;;6.70;99.90;;;;;;5035813;28;20226;-62
2022/02/04 01:45:56;;;;;;;29.73;20.40;;;6.70;99.90;;;;;;5035662;28;20213;-62
2022/02/04 01:48:23;;;;;;;28.98;21.60;;;6.80;99.90;;;;;;5035585;28;20297;-62
2022/02/04 01:50:51;;;;;;;26.08;20.73;;;6.80;99.90;;;;;;5036299;28;20198;-62
2022/02/04 01:53:20;;;;;;;33.50;21.00;;;6.80;99.90;;;;;;5044864;28;20223;-62
2022/02/04 01:55:49;;;;;;;28.42;20.48;;;6.80;99.90;;;;;;5040294;28;20199;-62
2022/02/04 01:58:16;;;;;;;26.83;20.73;;;6.80;99.90;;;;;;5039550;28;20206;-62
2022/02/04 02:00:43;;;;;;;28.33;21.25;;;6.80;99.90;;;;;;5040450;28;20202;-63
2022/02/04 02:03:11;;;;;;;27.70;20.35;;;6.80;99.90;;;;;;5036125;28;20231;-63
2022/02/04 02:05:38;;;;;;;27.80;21.05;;;6.80;99.90;;;;;;5035776;28;20206;-62
2022/02/04 02:08:06;;;;;;;31.67;19.35;;;6.80;99.90;;;;;;5035732;28;20266;-62
2022/02/04 02:10:33;;;;;;;27.35;20.05;;;6.80;99.90;;;;;;5035729;28;20199;-62
2022/02/04 02:13:11;;;;;;;28.75;22.13;;;6.80;99.90;;;;;;5034996;28;20594;-63
2022/02/04 02:15:48;;;;;;;28.10;20.70;;;6.80;99.90;;;;;;5035274;28;20588;-61
2022/02/04 02:43:17;;;;;;;23.63;17.83;;;6.90;99.90;;;;;;5058691;22;20284;-57
2022/02/04 02:54:39;;;;;;;21.95;17.10;;;6.90;99.90;;;;;;5014744;28;20214;-56
2022/02/04 02:57:28;;;;;;;26.90;18.65;;;6.90;99.90;;;;;;5014785;28;20562;-56
2022/02/04 03:00:01;;;;;;;24.42;19.33;;;6.80;99.90;;;;;;5014595;28;20218;-56
2022/02/04 03:02:28;;;;;;;28.80;20.70;;;6.90;99.90;;;;;;5014781;28;20311;-57
2022/02/04 03:04:55;;;;;;;25.17;18.83;;;6.90;99.90;;;;;;5014756;28;20211;-56
2022/02/04 03:07:22;;;;;;;25.92;18.40;;;6.90;99.90;;;;;;5014609;28;20215;-56
2022/02/04 03:09:50;;;;;;;25.80;19.23;;;6.90;99.90;;;;;;5014721;28;20207;-56
2022/02/04 03:12:17;;;;;;;24.33;18.17;;;6.90;99.90;;;;;;5014047;28;20707;-56
2022/02/04 03:14:45;;;;;;;27.50;18.85;;;6.90;99.90;;;;;;5014434;28;20572;-56
2022/02/04 03:17:14;;;;;;;23.73;19.02;;;6.80;99.90;;;;;;5014340;28;20670;-56
2022/02/04 03:19:45;;;;;;;25.95;17.60;;;6.90;99.90;;;;;;5014466;28;20226;-56
2022/02/04 03:22:14;;;;;;;24.70;19.02;;;6.90;99.90;;;;;;5014020;28;20226;-57
2022/02/04 03:24:44;;;;;;;24.38;18.58;;;6.90;99.90;;;;;;5014010;28;20605;-56
2022/02/04 03:27:14;;;;;;;22.40;17.02;;;6.90;99.90;;;;;;5014034;28;20183;-56
2022/02/04 03:29:59;;;;;;;28.67;18.30;;;6.80;99.90;;;;;;5013948;28;20203;-56
2022/02/04 03:32:26;;;;;;;23.45;18.33;;;6.90;99.90;;;;;;5014596;28;20219;-56
2022/02/04 03:34:53;;;;;;;26.25;18.75;;;6.90;99.90;;;;;;5014082;28;20211;-56
2022/02/04 03:37:20;;;;;;;25.70;18.75;;;6.90;99.90;;;;;;5016697;28;20207;-60
2022/02/04 03:39:47;;;;;;;25.23;17.02;;;6.90;99.90;;;;;;5013968;28;20210;-60
2022/02/04 03:42:15;;;;;;;25.25;16.85;;;6.90;99.90;;;;;;5013772;28;20242;-60
2022/02/04 03:44:42;;;;;;;24.23;18.70;;;6.90;99.90;;;;;;5013732;28;20199;-60
2022/02/04 03:47:10;;;;;;;24.02;17.92;;;6.90;99.90;;;;;;5013586;28;20215;-60
2022/02/04 03:49:37;;;;;;;22.50;18.25;;;6.90;99.90;;;;;;5013491;28;20233;-60
2022/02/04 03:52:04;;;;;;;24.52;17.40;;;6.90;99.90;;;;;;5013503;28;20687;-60
2022/02/04 03:54:31;;;;;;;26.27;18.27;;;6.90;99.90;;;;;;5013675;28;20232;-60
2022/02/04 03:56:59;;;;;;;25.23;18.17;;;7.00;99.90;;;;;;5013437;28;20199;-60
2022/02/04 03:59:28;;;;;;;25.15;18.42;;;7.00;99.90;;;;;;5013399;28;20211;-60
2022/02/04 04:01:55;;;;;;;23.50;17.58;;;7.00;99.90;;;;;;5013278;28;20746;-60
2022/02/04 04:04:27;;;;;;;23.85;18.30;;;7.00;99.90;;;;;;5013358;28;20214;-60
2022/02/04 04:09:16;;;;;;;24.35;18.05;;;7.00;99.90;;;;;;5091510;27;21101;-60
2022/02/04 04:11:46;;;;;;;26.77;17.55;;;7.00;99.90;;;;;;5090871;28;20200;-59
2022/02/04 04:14:16;;;;;;;22.45;18.60;;;7.00;99.90;;;;;;5090431;28;20224;-61
2022/02/04 04:16:44;;;;;;;24.27;19.38;;;7.00;99.90;;;;;;5090839;28;20204;-61
2022/02/04 04:19:11;;;;;;;28.15;18.42;;;7.00;99.90;;;;;;5090317;28;20550;-60
2022/02/04 04:21:38;;;;;;;23.83;19.35;;;7.00;99.90;;;;;;5100234;22;20590;-57
2022/02/04 04:24:06;;;;;;;25.75;18.73;;;7.00;99.90;;;;;;5049856;28;20201;-55
2022/02/04 04:26:34;;;;;;;25.38;18.23;;;7.00;99.90;;;;;;5050150;28;20212;-58
2022/02/04 04:29:01;;;;;;;26.85;19.35;;;7.00;99.90;;;;;;5049954;28;20232;-57
2022/02/04 04:31:28;;;;;;;24.30;18.95;;;7.00;99.90;;;;;;5050307;28;20221;-55
2022/02/04 04:33:56;;;;;;;26.05;18.38;;;7.00;99.90;;;;;;5050890;28;20202;-57
2022/02/04 04:36:23;;;;;;;24.48;19.05;;;7.00;99.90;;;;;;5051154;28;20202;-55
2022/02/04 04:38:55;;;;;;;27.20;18.90;;;7.00;99.90;;;;;;5050497;28;20661;-57
2022/02/04 04:41:32;;;;;;;23.85;17.42;;;7.00;99.90;;;;;;5050088;28;20225;-57
2022/02/04 05:25:43;;;;;;;26.95;19.63;;;7.00;99.90;;;;;;5044765;28;20210;-56
2022/02/04 05:28:42;;;;;;;25.80;18.25;;;7.10;99.90;;;;;;5014299;28;20209;-56
2022/02/04 05:31:10;;;;;;;24.52;17.58;;;7.10;99.90;;;;;;5013815;28;20711;-56
2022/02/04 05:33:38;;;;;;;22.10;16.23;;;7.10;99.90;;;;;;5026259;28;20209;-56
2022/02/04 05:36:07;;;;;;;29.42;19.33;;;7.10;99.90;;;;;;5036174;28;20216;-56
2022/02/04 05:38:35;;;;;;;25.00;17.80;;;7.10;99.90;;;;;;5036536;28;20252;-56
2022/02/04 05:41:03;;;;;;;22.23;16.60;;;7.10;99.90;;;;;;5036752;28;20214;-54
2022/02/04 05:43:34;;;;;;;25.00;18.15;;;7.10;99.90;;;;;;5035952;28;20213;-56
2022/02/04 05:46:04;;;;;;;23.98;18.45;;;7.10;99.90;;;;;;5035972;28;20621;-55
2022/02/04 05:48:35;;;;;;;23.67;17.73;;;7.10;99.90;;;;;;5035795;28;20638;-56
2022/02/04 05:51:23;;;;;;;23.13;17.73;;;7.10;99.90;;;;;;5035329;28;20191;-57
2022/02/04 05:53:57;;;;;;;24.33;19.03;;;7.10;99.90;;;;;;5034353;28;20860;-57
2022/02/04 05:56:32;;;;;;;22.40;17.33;;;7.10;99.90;;;;;;5035154;28;20442;-57
2022/02/04 05:59:06;;;;;;;24.70;18.27;;;7.10;99.90;;;;;;5035248;28;20205;-55
2022/02/04 06:01:44;;;;;;;24.30;17.02;;;7.20;99.90;;;;;;5035099;28;20268;-56
2022/02/04 06:04:33;;;;;;;20.02;16.40;;;7.20;99.90;;;;;;5035495;28;20269;-54
2022/02/04 06:23:48;;;;;;;21.83;16.58;;;7.20;99.90;;;;;;5034878;28;20232;-55
2022/02/04 06:26:16;;;;;;;20.60;15.52;;;7.20;99.90;;;;;;5035078;28;20198;-56
2022/02/04 06:28:43;;;;;;;21.13;14.90;;;7.20;99.90;;;;;;5034301;28;20249;-55
2022/02/04 06:31:11;;;;;;;18.65;14.90;;;7.20;99.90;;;;;;5033553;28;20227;-55
2022/02/04 06:33:40;;;;;;;24.92;16.80;;;7.20;99.90;;;;;;5034574;28;20202;-56
2022/02/04 06:36:07;;;;;;;20.95;15.68;;;7.20;99.90;;;;;;5034758;28;20202;-55
2022/02/04 06:38:35;;;;;;;17.90;14.55;;;7.20;99.90;;;;;;5034781;28;20198;-56
2022/02/04 06:41:04;;;;;;;18.38;14.20;;;7.20;99.90;;;;;;5034490;28;20206;-55
2022/02/04 06:43:31;;;;;;;20.70;13.35;;;7.20;99.90;;;;;;5034967;28;20233;-56
2022/02/04 06:45:59;;;;;;;19.63;14.80;;;7.20;99.90;;;;;;5034544;28;20301;-55
2022/02/04 06:48:26;;;;;;;19.75;15.38;;;7.20;99.90;;;;;;5034607;28;20581;-55
2022/02/04 06:50:53;;;;;;;19.75;14.55;;;7.20;99.90;;;;;;5034655;28;20202;-55
2022/02/04 06:53:20;;;;;;;19.00;14.98;;;7.20;99.90;;;;;;5035035;28;20209;-55
2022/02/04 06:55:47;;;;;;;18.98;13.77;;;7.20;99.90;;;;;;5034275;28;20213;-55
2022/02/04 06:58:16;;;;;;;17.45;14.32;;;7.20;99.90;;;;;;5034567;28;20206;-55
2022/02/04 07:00:44;;;;;;;17.00;13.23;;;7.20;99.90;;;;;;5034237;28;20670;-55
2022/02/04 07:03:11;;;;;;;17.85;12.98;;;7.20;99.90;;;;;;5034228;28;20230;-56
2022/02/04 07:05:53;;;;;;;17.10;13.50;;;7.20;99.90;;;;;;5034568;28;20202;-56
2022/02/04 07:08:25;;;;;;;17.80;13.45;;;7.20;99.90;;;;;;5034512;28;20214;-56
2022/02/04 07:11:06;;;;;;;16.20;13.82;;;7.30;99.90;;;;;;5034609;28;20206;-58
2022/02/04 07:13:45;;;;;;;18.42;13.43;;;7.30;99.90;;;;;;5034660;28;20186;-59
2022/02/04 07:16:27;;;;;;;19.10;14.38;;;7.30;99.90;;;;;;5034148;28;20254;-59
2022/02/04 07:21:39;;;;;;;16.48;12.43;;;7.20;99.90;;;;;;5033331;28;20275;-58
2022/02/04 07:24:07;;;;;;;19.25;13.07;;;7.20;99.90;;;;;;5033381;28;20210;-58
2022/02/04 07:26:34;;;;;;;17.80;12.80;;;7.20;99.90;;;;;;5033004;28;20595;-58
2022/02/04 07:29:02;;;;;;;16.65;13.80;;;7.20;99.90;;;;;;5033793;28;20773;-59
2022/02/04 07:31:34;;;;;;;13.90;12.38;;;7.20;99.90;;;;;;5033651;28;20223;-58
2022/02/04 07:34:14;;;;;;;17.05;12.50;;;7.20;99.90;;;;;;5033603;28;20250;-59
2022/02/04 07:42:11;;;;;;;14.20;11.38;;;7.30;99.90;;;;;;5033458;28;20335;-59
2022/02/04 07:44:39;;;;;;;14.23;11.82;;;7.30;99.90;;;;;;5034089;28;20202;-58
2022/02/04 07:47:12;;;;;;;13.90;11.63;;;7.30;99.90;;;;;;5032800;28;20202;-58
2022/02/04 07:49:39;;;;;;;15.35;11.93;;;7.40;99.90;;;;;;5033157;28;20215;-58
2022/02/04 07:52:06;;;;;;;17.02;12.20;;;7.40;99.90;;;;;;5033428;28;20245;-58
2022/02/04 07:54:34;;;;;;;13.07;11.00;;;7.40;99.90;;;;;;5032703;28;20202;-57
2022/02/04 07:57:01;;;;;;;12.40;10.90;;;7.40;99.90;;;;;;5033219;28;20209;-58
2022/02/04 07:59:28;;;;;;;13.25;11.68;;;7.40;99.90;;;;;;5032819;28;20205;-57
2022/02/04 08:01:56;;;;;;;13.32;11.93;;;7.50;99.90;;;;;;5032400;28;20250;-58
2022/02/04 08:04:28;;;;;;;17.40;12.48;;;7.50;99.90;;;;;;5032884;28;20206;-57
2022/02/04 08:07:00;;;;;;;14.25;11.85;;;7.50;99.90;;;;;;5032856;28;20193;-59
2022/02/04 08:09:36;;;;;;;12.40;11.10;;;7.60;99.90;;;;;;5033059;28;20206;-56
2022/02/04 08:15:03;;;;;;;12.68;10.95;;;7.60;99.90;;;;;;5019817;28;20205;-58
2022/02/04 08:18:06;;;;;;;14.32;12.05;;;7.70;99.90;;;;;;5033014;28;20221;-58
2022/02/04 08:20:54;;;;;;;12.85;10.52;;;7.70;99.90;;;;;;5033075;28;20210;-57
2022/02/04 08:26:21;;;;;;;14.05;11.10;;;7.80;99.90;;;;;;5031931;28;20237;-57
2022/02/04 08:37:50;;;;;;;10.80;9.65;;;7.90;99.90;;;;;;5153044;27;20513;-57
2022/02/04 08:51:37;;;;;;;11.35;10.07;;;8.00;99.90;;;;;;5152506;27;20646;-57
2022/02/04 08:54:14;;;;;;;10.80;9.70;;;8.00;99.90;;;;;;5152824;27;20182;-58
2022/02/04 08:56:46;;;;;;;10.55;9.38;;;8.00;99.90;;;;;;5152359;27;20209;-57
2022/02/04 08:59:24;;;;;;;11.80;9.68;;;8.00;99.90;;;;;;5152359;27;20202;-57
2022/02/04 09:01:59;;;;;;;11.23;9.77;;;8.10;99.90;;;;;;5153011;27;20389;-58
2022/02/04 09:04:33;;;;;;;10.73;9.63;;;8.10;99.90;;;;;;5153282;27;20186;-58
2022/02/04 09:07:06;;;;;;;10.90;9.80;;;8.10;99.90;;;;;;5152004;27;20178;-57
2022/02/04 09:09:50;;;;;;;10.52;9.38;;;8.20;99.90;;;;;;5151913;27;20187;-56
2022/02/04 09:18:32;;;;;;;10.45;8.60;;;8.30;99.90;;;;;;5151594;27;20576;-57
2022/02/04 09:21:24;;;;;;;9.30;7.90;;;8.30;99.90;;;;;;5151088;27;20675;-58
2022/02/04 09:23:51;;;;;;;10.18;8.70;;;8.30;99.90;;;;;;5152179;27;20195;-58
2022/02/04 09:26:20;;;;;;;11.52;8.70;;;8.40;99.90;;;;;;5151599;27;20194;-57
2022/02/04 09:28:47;;;;;;;9.98;8.98;;;8.40;99.90;;;;;;5152174;27;20235;-60
2022/02/04 09:31:20;;;;;;;11.93;8.35;;;8.40;99.90;;;;;;5153216;27;20225;-56
2022/02/04 09:33:47;;;;;;;9.02;8.07;;;8.40;99.90;;;;;;5155733;27;20198;-56
2022/02/04 09:36:14;;;;;;;9.85;7.97;;;8.40;99.90;;;;;;5154851;27;20222;-57
2022/02/04 09:38:41;;;;;;;11.75;8.88;;;8.40;99.90;;;;;;5155288;27;20241;-57
2022/02/04 09:41:09;;;;;;;9.68;7.70;;;8.40;99.90;;;;;;5152782;27;20567;-57
2022/02/04 09:43:37;;;;;;;8.55;7.75;;;8.40;99.90;;;;;;5151943;27;20206;-58
2022/02/04 09:46:07;;;;;;;8.73;7.80;;;8.40;99.90;;;;;;5150797;27;20194;-58
2022/02/04 09:48:34;;;;;;;8.70;6.85;;;8.40;99.90;;;;;;5138904;27;20195;-57
2022/02/04 09:51:01;;;;;;;8.02;7.22;;;8.40;99.90;;;;;;5136764;27;20238;-57
2022/02/04 10:04:58;;;;;;;7.40;5.82;;;8.60;99.90;;;;;;5136960;27;20220;-56
2022/02/04 10:07:36;;;;;;;8.48;5.90;;;8.60;99.90;;;;;;5136813;27;20199;-57
2022/02/04 10:16:16;;;;;;;5.43;4.55;;;8.90;99.90;;;;;;5099347;27;20218;-57
2022/02/04 10:18:49;;;;;;;7.60;5.45;;;9.00;99.90;;;;;;5136609;27;20187;-57
2022/02/04 10:21:17;;;;;;;5.45;4.95;;;9.00;99.90;;;;;;5135877;27;20222;-57
2022/02/04 10:23:49;;;;;;;5.70;5.05;;;9.00;99.90;;;;;;5136388;27;20199;-57
2022/02/04 10:26:17;;;;;;;5.50;4.95;;;9.10;99.90;;;;;;5135890;27;20722;-57
2022/02/04 10:28:45;;;;;;;7.03;5.20;;;9.10;99.90;;;;;;5136676;27;20332;-58
2022/02/04 10:31:20;;;;;;;7.18;5.10;;;9.00;99.90;;;;;;5136531;27;20219;-56
2022/02/04 10:33:58;;;;;;;6.82;5.45;;;9.00;99.90;;;;;;5136246;27;20198;-58
2022/02/04 10:36:53;;;;;;;5.65;5.15;;;9.00;99.90;;;;;;5136022;27;20223;-57
2022/02/04 10:39:31;;;;;;;6.40;5.10;;;9.00;99.90;;;;;;5136720;27;20626;-57
2022/02/04 10:42:17;;;;;;;5.28;4.40;;;9.00;99.90;;;;;;5136043;27;20225;-57
2022/02/04 10:45:00;;;;;;;6.38;5.88;;;9.10;99.90;;;;;;5136264;27;20199;-56
2022/02/04 10:47:47;;;;;;;5.65;4.65;;;9.10;99.90;;;;;;5136037;27;20183;-55
2022/02/04 10:50:47;;;;;;;6.60;4.93;;;9.10;99.90;;;;;;5136444;27;20730;-57
2022/02/04 10:53:38;;;;;;;5.35;4.85;;;9.10;99.90;;;;;;5136608;27;20183;-56
2022/02/04 11:04:51;;;;;;;5.25;4.75;;;9.60;99.90;;;;;;5081564;28;20277;-56
2022/02/04 11:10:19;;;;;;;4.57;3.63;;;9.70;99.90;;;;;;5090605;28;20187;-57
2022/02/04 11:32:43;;;;;;;3.43;3.13;;;9.90;99.90;;;;;;5089944;28;20211;-57
2022/02/04 11:35:30;;;;;;;4.00;3.60;;;9.90;99.90;;;;;;5089672;28;20434;-56
2022/02/04 11:43:57;;;;;;;4.30;3.95;;;9.90;99.90;;;;;;5089946;28;20409;-56
2022/02/04 11:52:41;;;;;;;3.93;3.63;;;9.70;99.90;;;;;;5089209;28;20962;-55
2022/02/04 11:55:31;;;;;;;3.20;2.90;;;9.70;99.90;;;;;;5089260;28;20430;-57
2022/02/04 11:58:03;;;;;;;4.30;3.20;;;9.70;99.90;;;;;;5089400;28;20487;-58
2022/02/04 12:00:32;;;;;;;3.63;3.33;;;9.70;99.90;;;;;;5089674;28;20749;-57
2022/02/04 12:03:00;;;;;;;2.80;2.60;;;9.70;99.90;;;;;;5089896;28;20470;-57
2022/02/04 12:05:38;;;;;;;2.90;2.70;;;9.70;99.90;;;;;;5089533;28;20447;-56
2022/02/04 12:08:31;;;;;;;2.53;2.33;;;9.80;99.90;;;;;;5089475;28;20434;-57
2022/02/04 12:11:00;;;;;;;2.80;2.60;;;9.80;99.90;;;;;;5075280;28;20489;-57
2022/02/04 12:13:28;;;;;;;3.87;2.60;;;9.70;99.90;;;;;;5075029;28;20525;-58
2022/02/04 12:15:58;;;;;;;3.20;2.90;;;9.70;99.90;;;;;;5075533;28;20450;-58
2022/02/04 12:19:03;;;;;;;2.60;2.40;;;9.70;99.90;;;;;;5075747;28;20224;-57
2022/02/04 12:21:50;;;;;;;2.73;2.53;;;9.70;99.90;;;;;;5076909;28;20463;-58
2022/02/04 12:24:38;;;;;;;2.60;2.40;;;9.80;99.90;;;;;;5075835;28;20485;-57
2022/02/04 12:27:37;;;;;;;2.67;2.30;;;9.80;99.90;;;;;;5075730;28;20185;-58
2022/02/04 12:30:34;;;;;;;2.57;2.37;;;9.90;99.90;;;;;;5081287;22;20489;-60
2022/02/04 12:33:03;;;;;;;2.70;2.50;;;10.00;99.90;;;;;;5037266;28;20434;-60
2022/02/04 12:35:30;;;;;;;2.50;2.30;;;10.10;99.90;;;;;;5036772;28;20453;-60
2022/02/04 12:37:59;;;;;;;2.83;2.57;;;10.10;99.90;;;;;;5036032;28;20477;-60
2022/02/04 12:40:26;;;;;;;2.20;2.00;;;10.00;99.90;;;;;;5035912;28;20467;-60
2022/02/04 12:42:54;;;;;;;4.90;2.20;;;10.10;99.90;;;;;;5035666;28;20449;-60
2022/02/04 12:45:21;;;;;;;1.97;1.87;;;10.20;99.80;;;;;;5035758;28;20460;-60
2022/02/04 12:47:52;;;;;;;2.33;1.90;;;10.30;99.60;;;;;;5036183;28;20920;-61
2022/02/04 12:50:25;;;;;;;1.90;1.70;;;10.30;99.40;;;;;;5035330;28;20468;-61
2022/02/04 12:52:52;;;;;;;2.60;2.40;;;10.30;99.20;;;;;;5036068;28;20465;-60
2022/02/04 12:55:33;;;;;;;2.10;2.00;;;10.40;99.00;;;;;;5035432;28;20535;-60
2022/02/04 12:58:14;;;;;;;2.07;1.90;;;10.40;98.80;;;;;;5036405;28;20496;-60
2022/02/04 13:07:28;;;;;;;2.20;1.73;;;10.40;98.90;;;;;;5014127;28;20495;-60
2022/02/04 13:09:49;;;;;;;2.27;1.70;;;10.30;98.60;;;;;;5034298;28;20906;-61
2022/02/04 13:12:17;;;;;;;2.27;1.60;;;10.20;98.40;;;;;;5034369;28;20542;-60
2022/02/04 13:14:49;;;;;;;1.60;1.50;;;10.10;98.60;;;;;;5034196;28;20440;-60
2022/02/04 13:17:33;;;;;;;1.77;1.67;;;10.00;98.80;;;;;;5034414;28;20421;-60
2022/02/04 13:20:01;;;;;;;2.17;1.53;;;9.90;99.40;;;;;;5034430;28;20468;-62
2022/02/04 13:22:29;;;;;;;1.50;1.40;;;9.90;99.50;;;;;;5034018;28;20445;-61
2022/02/04 13:25:11;;;;;;;4.68;2.25;;;9.90;99.50;;;;;;5033994;28;20456;-61
2022/02/04 13:28:00;;;;;;;4.00;1.20;;;9.80;99.80;;;;;;5035277;28;20194;-61
2022/02/04 13:30:28;;;;;;;1.30;1.20;;;9.90;99.80;;;;;;5034186;28;20227;-61
2022/02/04 13:32:56;;;;;;;3.03;1.20;;;9.80;99.80;;;;;;5033528;28;20682;-60
2022/02/04 13:35:29;;;;;;;1.45;1.30;;;9.80;99.90;;;;;;5033710;28;20441;-61
2022/02/04 13:38:02;;;;;;;2.43;2.23;;;9.80;99.90;;;;;;5034077;28;20242;-60
2022/02/04 13:40:49;;;;;;;1.30;1.20;;;9.90;99.90;;;;;;5033732;28;20469;-61
2022/02/04 13:43:35;;;;;;;1.90;1.17;;;10.00;99.20;;;;;;5033888;28;20674;-60
2022/02/04 13:46:11;;;;;;;1.90;1.23;;;10.00;98.70;;;;;;5033946;28;20429;-61
2022/02/04 13:49:09;;;;;;;2.00;1.20;;;10.10;98.40;;;;;;5034067;28;20524;-61
2022/02/04 13:51:54;;;;;;;2.43;1.40;;;10.10;98.20;;;;;;5033626;28;20282;-60
2022/02/04 13:57:23;;;;;;;2.63;1.10;;;10.20;97.80;;;;;;5033383;28;20215;-61
2022/02/04 14:00:13;;;;;;;1.00;0.90;;;10.20;97.20;;;;;;5033611;28;20495;-60
2022/02/04 14:02:44;;;;;;;1.30;1.20;;;10.20;97.00;;;;;;5033534;28;20524;-58
2022/02/04 14:05:14;;;;;;;1.20;1.00;;;10.20;96.80;;;;;;5033628;28;20443;-61
2022/02/04 14:07:46;;;;;;;1.77;1.10;;;10.10;96.80;;;;;;5033471;28;20536;-60
2022/02/04 14:10:25;;;;;;;1.10;1.00;;;10.10;96.60;;;;;;5035996;28;20469;-61
2022/02/04 14:13:06;;;;;;;2.10;1.70;;;10.00;96.60;;;;;;5035505;28;20525;-61
2022/02/04 14:15:36;;;;;;;1.20;1.10;;;10.10;96.80;;;;;;5035250;28;20438;-60
2022/02/04 14:18:07;;;;;;;3.10;1.20;;;10.10;96.50;;;;;;5035339;28;20480;-59
2022/02/04 14:20:36;;;;;;;1.52;1.10;;;10.10;96.10;;;;;;5034378;28;20226;-60
2022/02/04 14:23:04;;;;;;;1.27;1.07;;;10.00;96.20;;;;;;5034270;28;20613;-59
2022/02/04 14:25:32;;;;;;;1.97;1.00;;;10.00;96.70;;;;;;5033971;28;20482;-58
2022/02/04 14:28:03;;;;;;;1.97;0.87;;;10.00;96.40;;;;;;5033940;28;20954;-60
2022/02/04 14:30:35;;;;;;;1.08;0.98;;;10.00;96.30;;;;;;5033836;28;20481;-61
2022/02/04 14:33:11;;;;;;;1.10;1.00;;;10.00;96.00;;;;;;5033646;28;20187;-62
2022/02/04 14:35:57;;;;;;;1.17;1.08;;;9.90;96.50;;;;;;5033359;28;20839;-61
2022/02/04 14:49:54;;;;;;;1.10;1.00;;;9.70;97.50;;;;;;5033405;28;20178;-59
2022/02/04 14:52:29;;;;;;;1.10;1.00;;;9.40;98.60;;;;;;5033165;28;20476;-58
2022/02/04 15:00:40;;;;;;;1.17;1.08;;;8.90;99.90;;;;;;5032924;28;20336;-59
2022/02/04 15:03:18;;;;;;;1.02;0.85;;;8.80;99.90;;;;;;5032696;28;20528;-60
2022/02/04 15:05:49;;;;;;;1.65;1.50;;;8.70;99.90;;;;;;5032707;28;20186;-61
2022/02/04 15:08:19;;;;;;;1.40;1.10;;;8.70;99.90;;;;;;5033311;28;20186;-60
2022/02/04 15:10:48;;;;;;;1.63;1.48;;;8.80;99.90;;;;;;5033009;28;20256;-60
2022/02/04 15:13:16;;;;;;;1.40;1.13;;;8.80;99.90;;;;;;5032920;28;20237;-59
2022/02/04 15:15:44;;;;;;;2.17;1.40;;;8.80;99.90;;;;;;5032684;28;20202;-59
2022/02/04 15:18:14;;;;;;;1.75;1.30;;;8.90;99.90;;;;;;5033265;28;20589;-59
2022/02/04 15:20:41;;;;;;;1.98;1.50;;;8.90;99.90;;;;;;5033468;28;20769;-58
2022/02/04 15:23:12;;;;;;;1.83;1.50;;;8.90;99.90;;;;;;5033086;28;20202;-59
2022/02/04 15:25:39;;;;;;;1.52;1.33;;;8.90;99.90;;;;;;5032833;28;20273;-60
2022/02/04 15:28:24;;;;;;;3.80;1.60;;;8.90;99.90;;;;;;5032700;28;20209;-59
2022/02/04 15:30:54;;;;;;;1.50;1.40;;;9.00;99.90;;;;;;5032854;28;20529;-59
2022/02/04 15:33:22;;;;;;;1.35;1.20;;;9.00;99.90;;;;;;5032638;28;20252;-59
2022/02/04 15:35:49;;;;;;;2.35;1.45;;;9.00;99.60;;;;;;5033244;28;20206;-59
2022/02/04 15:38:17;;;;;;;1.70;1.60;;;9.00;99.20;;;;;;5033262;28;20594;-59
2022/02/04 15:40:46;;;;;;;1.30;1.20;;;9.00;99.30;;;;;;5032305;28;20233;-59
2022/02/04 15:43:14;;;;;;;1.80;1.70;;;9.00;99.20;;;;;;5032275;28;20682;-58
2022/02/04 15:48:37;;;;;;;2.50;2.15;;;8.90;99.30;;;;;;5027666;28;20745;-59
2022/02/04 15:51:16;;;;;;;2.97;1.90;;;8.90;99.30;;;;;;5036701;28;20276;-59
2022/02/04 15:53:58;;;;;;;3.00;1.95;;;8.90;98.80;;;;;;5036625;28;20623;-60
2022/02/04 15:56:42;;;;;;;2.13;1.75;;;8.90;98.80;;;;;;5035744;28;20194;-59
2022/02/04 15:59:28;;;;;;;1.65;1.50;;;8.80;98.70;;;;;;5036084;28;20678;-60
2022/02/04 16:02:05;;;;;;;2.42;1.85;;;8.80;98.70;;;;;;5035692;28;20631;-60
2022/02/04 16:04:33;;;;;;;2.17;1.98;;;8.80;98.50;;;;;;5035473;28;20240;-59
2022/02/04 16:07:00;;;;;;;2.40;2.20;;;8.80;98.40;;;;;;5035798;28;20202;-59
2022/02/04 16:09:29;;;;;;;1.67;1.58;;;8.80;98.20;;;;;;5035889;28;20217;-59
2022/02/04 16:12:05;;;;;;;2.15;1.85;;;8.80;98.20;;;;;;5035972;28;20656;-56
2022/02/04 16:14:38;;;;;;;2.22;1.60;;;8.80;97.60;;;;;;5036072;28;20239;-59
2022/02/04 16:17:09;;;;;;;1.70;1.55;;;8.80;97.60;;;;;;5036085;28;20187;-59
2022/02/04 16:19:41;;;;;;;2.00;1.80;;;8.80;97.70;;;;;;5035956;28;20207;-59
2022/02/04 16:30:16;;;;;;;2.97;2.15;;;8.70;97.10;;;;;;5036282;28;20221;-58
2022/02/04 16:32:43;;;;;;;2.40;1.60;;;8.70;97.20;;;;;;5036043;28;20218;-59
2022/02/04 16:35:10;;;;;;;3.38;1.60;;;8.70;97.30;;;;;;5035601;28;20199;-59
2022/02/04 16:37:38;;;;;;;1.90;1.58;;;8.70;97.10;;;;;;5035709;28;20202;-59
2022/02/04 16:40:14;;;;;;;1.55;1.45;;;8.70;97.50;;;;;;5036101;28;20313;-59
2022/02/04 16:42:41;;;;;;;4.55;2.30;;;8.70;97.20;;;;;;5035801;28;20613;-59
2022/02/04 16:45:09;;;;;;;2.88;1.42;;;8.70;97.20;;;;;;5035778;28;20202;-60
2022/02/04 16:47:36;;;;;;;2.25;1.67;;;8.70;97.20;;;;;;5036545;28;20543;-59
2022/02/04 16:50:06;;;;;;;1.63;1.50;;;8.70;97.20;;;;;;5035597;28;20222;-59
2022/02/04 16:52:33;;;;;;;2.25;1.50;;;8.70;97.30;;;;;;5036292;28;20234;-59
2022/02/04 16:55:01;;;;;;;3.25;2.28;;;8.70;96.90;;;;;;5036083;28;20206;-58
2022/02/04 16:57:29;;;;;;;2.53;1.83;;;8.60;96.70;;;;;;5036072;28;20297;-58
2022/02/04 17:00:00;;;;;;;3.00;2.00;;;8.60;97.10;;;;;;5035902;28;20233;-59
2022/02/04 17:02:27;;;;;;;2.20;2.00;;;8.60;97.30;;;;;;5036023;28;20191;-59
2022/02/04 17:04:54;;;;;;;1.63;1.52;;;8.60;97.40;;;;;;5035922;28;20287;-59
2022/02/04 17:07:25;;;;;;;2.05;1.73;;;8.60;97.50;;;;;;5035720;28;20210;-59
2022/02/04 17:09:53;;;;;;;3.55;1.58;;;8.60;97.40;;;;;;5036177;28;20250;-59
2022/02/04 17:12:28;;;;;;;2.08;1.77;;;8.60;97.60;;;;;;5034950;28;20206;-58
2022/02/04 17:14:59;;;;;;;1.88;1.55;;;8.60;97.60;;;;;;5035734;28;20182;-60
2022/02/04 17:17:26;;;;;;;2.03;1.65;;;8.60;97.50;;;;;;5035308;28;20269;-60
2022/02/04 17:20:05;;;;;;;2.67;1.70;;;8.60;97.80;;;;;;5034513;28;20222;-60
2022/02/04 17:22:34;;;;;;;1.80;1.52;;;8.50;98.00;;;;;;5034839;28;20604;-60
2022/02/04 17:25:03;;;;;;;4.22;1.92;;;8.50;98.50;;;;;;5034270;28;20206;-60
2022/02/04 17:27:30;;;;;;;2.28;1.90;;;8.40;99.10;;;;;;5034408;28;20202;-58
2022/02/04 17:29:59;;;;;;;2.90;1.90;;;8.30;99.70;;;;;;5034249;28;20223;-59
2022/02/04 17:32:27;;;;;;;2.50;1.73;;;8.30;99.90;;;;;;5034851;28;20210;-59
2022/02/04 17:34:54;;;;;;;2.05;1.40;;;8.20;99.90;;;;;;5034386;28;20682;-58
2022/02/04 17:37:21;;;;;;;2.65;2.00;;;8.10;99.90;;;;;;5034670;28;20671;-61
2022/02/04 17:39:51;;;;;;;1.88;1.50;;;8.00;99.90;;;;;;5034358;28;20232;-60
2022/02/04 17:42:22;;;;;;;1.90;1.63;;;8.00;99.90;;;;;;5034691;28;20214;-60
2022/02/04 17:44:50;;;;;;;2.05;1.70;;;7.90;99.90;;;;;;5034712;28;20191;-59
2022/02/04 17:47:20;;;;;;;2.28;1.60;;;7.80;99.90;;;;;;5033816;28;20663;-59
2022/02/04 17:49:53;;;;;;;2.67;1.80;;;7.80;99.90;;;;;;5034997;28;20272;-58
2022/02/04 17:52:24;;;;;;;1.70;1.50;;;7.70;99.90;;;;;;5035405;28;20269;-60
2022/02/04 17:54:56;;;;;;;2.42;1.65;;;7.60;99.90;;;;;;5034269;28;20285;-60